createdAt,value
2023-05-05T00:02:07.585Z,4.32
2023-05-05T00:05:20.665Z,3.83
2023-05-05T00:08:33.321Z,3.80
2023-05-05T00:11:45.953Z,3.95
2023-05-05T00:14:58.299Z,3.33
2023-05-05T00:18:11.216Z,3.80
2023-05-05T00:21:23.546Z,3.58
2023-05-05T00:24:36.207Z,3.22
2023-05-05T00:27:48.537Z,3.70
2023-05-05T00:31:01.704Z,3.42
2023-05-05T00:34:14.169Z,2.97
2023-05-05T00:37:27.158Z,3.25
2023-05-05T00:40:39.619Z,4.07
2023-05-05T00:43:52.674Z,3.28
2023-05-05T00:47:05.381Z,3.50
2023-05-05T00:50:23.958Z,4.00
2023-05-05T00:53:36.401Z,3.47
2023-05-05T00:56:50.859Z,3.60
2023-05-05T01:00:03.683Z,3.50
2023-05-05T01:03:17.027Z,3.55
2023-05-05T01:06:35.273Z,3.55
2023-05-05T01:10:18.908Z,3.55
2023-05-05T01:13:43.284Z,3.55
2023-05-05T01:17:00.170Z,3.72
2023-05-05T01:20:23.932Z,3.62
2023-05-05T01:23:58.370Z,3.75
2023-05-05T01:27:35.348Z,3.78
2023-05-05T01:31:23.606Z,3.67
2023-05-05T01:34:57.635Z,3.87
2023-05-05T01:38:38.118Z,3.53
2023-05-05T01:41:51.253Z,3.75
2023-05-05T01:45:04.706Z,3.87
2023-05-05T01:48:17.570Z,3.80
2023-05-05T01:51:30.243Z,3.72
2023-05-05T01:54:43.321Z,3.53
2023-05-05T01:57:56.096Z,3.90
2023-05-05T02:01:08.949Z,3.10
2023-05-05T02:04:22.905Z,3.72
2023-05-05T02:07:35.298Z,3.70
2023-05-05T02:10:47.953Z,3.70
2023-05-05T02:14:00.366Z,3.65
2023-05-05T02:17:13.288Z,3.83
2023-05-05T02:20:25.858Z,3.87
2023-05-05T02:23:39.480Z,3.70
2023-05-05T02:26:52.294Z,3.95
2023-05-05T02:30:07.563Z,4.18
2023-05-05T02:33:20.220Z,3.70
2023-05-05T02:36:34.041Z,4.50
2023-05-05T02:39:51.587Z,4.07
2023-05-05T02:43:06.573Z,4.10
2023-05-05T02:46:19.421Z,3.97
2023-05-05T02:49:32.547Z,3.97
2023-05-05T02:52:45.248Z,4.10
2023-05-05T02:56:22.437Z,6.22
2023-05-05T03:00:02.208Z,6.03
2023-05-05T03:04:03.157Z,5.70
2023-05-05T03:07:25.230Z,5.45
2023-05-05T03:10:48.046Z,7.40
2023-05-05T03:14:13.000Z,5.95
2023-05-05T03:17:26.187Z,4.72
2023-05-05T03:20:41.732Z,6.07
2023-05-05T03:23:54.584Z,6.87
2023-05-05T03:27:07.784Z,6.20
2023-05-05T03:30:20.960Z,4.70
2023-05-05T03:33:33.985Z,5.70
2023-05-05T03:36:46.978Z,4.78
2023-05-05T03:40:00.531Z,4.93
2023-05-05T03:43:13.767Z,6.03
2023-05-05T03:46:26.202Z,4.75
2023-05-05T03:49:39.319Z,5.60
2023-05-05T03:52:51.806Z,5.60
2023-05-05T03:56:04.703Z,5.00
2023-05-05T03:59:17.396Z,4.50
2023-05-05T04:02:30.447Z,4.75
2023-05-05T04:05:43.441Z,4.72
2023-05-05T04:08:55.933Z,4.43
2023-05-05T04:12:08.760Z,4.90
2023-05-05T04:15:21.237Z,4.80
2023-05-05T04:18:33.966Z,6.70
2023-05-05T04:21:46.423Z,7.82
2023-05-05T04:24:59.308Z,6.75
2023-05-05T04:28:11.999Z,7.57
2023-05-05T04:31:24.809Z,5.65
2023-05-05T04:34:37.317Z,5.07
2023-05-05T04:37:50.328Z,4.30
2023-05-05T04:41:08.840Z,4.50
2023-05-05T04:44:22.125Z,4.47
2023-05-05T04:47:41.525Z,3.92
2023-05-05T04:50:54.361Z,5.07
2023-05-05T04:54:07.472Z,4.57
2023-05-05T04:57:20.324Z,4.37
2023-05-05T05:00:32.872Z,5.35
2023-05-05T05:03:46.011Z,5.47
2023-05-05T05:06:59.369Z,4.97
2023-05-05T05:10:12.362Z,4.32
2023-05-05T05:13:24.846Z,4.43
2023-05-05T05:16:37.759Z,4.80
2023-05-05T05:19:51.135Z,4.72
2023-05-05T05:23:04.575Z,4.40
2023-05-05T05:26:17.696Z,4.32
2023-05-05T05:29:30.912Z,5.20
2023-05-05T05:32:43.727Z,4.82
2023-05-05T05:35:56.478Z,4.43
2023-05-05T05:39:09.073Z,4.20
2023-05-05T05:42:21.824Z,4.12
2023-05-05T05:45:34.686Z,4.62
2023-05-05T05:48:47.788Z,3.75
2023-05-05T05:52:00.218Z,3.62
2023-05-05T05:55:13.087Z,3.22
2023-05-05T05:58:26.021Z,3.40
2023-05-05T06:01:40.456Z,3.30
2023-05-05T06:04:53.451Z,3.12
2023-05-05T06:08:06.739Z,3.00
2023-05-05T06:11:20.573Z,3.33
2023-05-05T06:14:33.050Z,2.78
2023-05-05T06:17:45.911Z,3.25
2023-05-05T06:20:58.304Z,3.10
2023-05-05T06:24:12.073Z,3.55
2023-05-05T06:27:24.564Z,3.00
2023-05-05T06:30:37.203Z,3.05
2023-05-05T06:33:49.542Z,3.25
2023-05-05T06:37:02.291Z,2.90
2023-05-05T06:40:14.830Z,3.25
2023-05-05T06:43:28.506Z,3.10
2023-05-05T06:46:44.180Z,2.58
2023-05-05T06:49:57.646Z,3.83
2023-05-05T06:53:10.996Z,3.28
2023-05-05T06:56:24.027Z,3.22
2023-05-05T06:59:36.504Z,3.12
2023-05-05T07:02:49.292Z,3.42
2023-05-05T07:06:01.688Z,3.20
2023-05-05T07:09:16.940Z,3.22
2023-05-05T07:12:30.698Z,3.33
2023-05-05T07:15:46.806Z,2.97
2023-05-05T07:19:00.881Z,3.08
2023-05-05T07:22:13.605Z,3.20
2023-05-05T07:25:26.812Z,2.95
2023-05-05T07:28:39.490Z,3.08
2023-05-05T07:31:51.956Z,3.33
2023-05-05T07:35:05.978Z,3.12
2023-05-05T07:38:18.404Z,3.65
2023-05-05T07:41:31.130Z,3.15
2023-05-05T07:44:43.588Z,3.15
2023-05-05T07:47:56.504Z,3.42
2023-05-05T07:51:09.355Z,3.97
2023-05-05T07:54:22.129Z,3.97
2023-05-05T07:57:34.766Z,4.25
2023-05-05T08:00:47.977Z,3.92
2023-05-05T08:04:00.777Z,3.50
2023-05-05T08:07:13.147Z,3.65
2023-05-05T08:10:25.799Z,3.50
2023-05-05T08:13:39.223Z,3.58
2023-05-05T08:16:51.900Z,3.70
2023-05-05T08:20:04.565Z,3.50
2023-05-05T08:23:17.254Z,4.18
2023-05-05T08:26:29.677Z,3.60
2023-05-05T08:29:42.374Z,3.70
2023-05-05T08:32:55.196Z,3.85
2023-05-05T08:36:08.945Z,3.70
2023-05-05T08:39:21.331Z,4.28
2023-05-05T08:42:38.439Z,3.85
2023-05-05T08:45:54.293Z,4.03
2023-05-05T08:49:07.259Z,4.03
2023-05-05T08:52:24.301Z,4.78
2023-05-05T08:55:41.893Z,3.92
2023-05-05T08:58:54.549Z,4.15
2023-05-05T09:02:07.387Z,3.80
2023-05-05T09:05:19.998Z,4.45
2023-05-05T09:08:33.481Z,3.90
2023-05-05T09:11:45.818Z,3.70
2023-05-05T09:15:05.008Z,3.85
2023-05-05T09:18:17.417Z,4.15
2023-05-05T09:21:30.181Z,3.65
2023-05-05T09:24:54.623Z,4.72
2023-05-05T09:28:14.724Z,4.28
2023-05-05T09:31:27.529Z,4.30
2023-05-05T09:34:40.211Z,4.30
2023-05-05T09:37:52.584Z,4.25
2023-05-05T09:41:06.545Z,4.30
2023-05-05T09:44:32.480Z,4.18
2023-05-05T09:47:48.435Z,4.00
2023-05-05T09:51:00.827Z,3.83
2023-05-05T09:54:29.673Z,4.57
2023-05-05T09:57:42.128Z,3.90
2023-05-05T10:09:09.262Z,3.35
2023-05-05T10:12:23.868Z,3.78
2023-05-05T10:15:36.538Z,3.22
2023-05-05T10:18:50.643Z,3.47
2023-05-05T10:22:03.533Z,3.45
2023-05-05T10:25:16.260Z,3.53
2023-05-05T10:28:42.218Z,3.10
2023-05-05T10:31:54.974Z,3.22
2023-05-05T10:35:11.051Z,3.37
2023-05-05T10:38:24.794Z,3.55
2023-05-05T10:41:39.060Z,3.62
2023-05-05T10:44:53.851Z,3.00
2023-05-05T10:48:07.399Z,3.78
2023-05-05T10:51:47.227Z,3.70
2023-05-05T10:55:16.549Z,3.37
2023-05-05T10:58:55.435Z,2.92
2023-05-05T11:02:21.414Z,3.20
2023-05-05T11:05:34.037Z,3.30
2023-05-05T11:08:46.532Z,3.30
2023-05-05T11:12:06.284Z,3.72
2023-05-05T11:15:27.895Z,3.53
2023-05-05T11:18:43.382Z,3.30
2023-05-05T11:22:02.001Z,3.40
2023-05-05T11:25:37.068Z,3.42
2023-05-05T11:29:00.794Z,3.53
2023-05-05T11:32:16.528Z,3.00
2023-05-05T11:35:58.263Z,3.12
2023-05-05T11:39:41.135Z,3.55
2023-05-05T11:43:04.752Z,3.70
2023-05-05T11:46:17.448Z,3.25
2023-05-05T11:49:34.271Z,3.30
2023-05-05T11:52:47.375Z,3.28
2023-05-05T11:56:09.258Z,3.10
2023-05-05T11:59:23.014Z,3.50
2023-05-05T12:02:36.112Z,2.97
2023-05-05T12:05:48.864Z,3.12
2023-05-05T12:09:01.358Z,3.37
2023-05-05T12:12:14.565Z,3.30
2023-05-05T12:15:31.220Z,3.22
2023-05-05T12:18:43.952Z,3.30
2023-05-05T12:21:56.824Z,3.20
2023-05-05T12:25:09.880Z,3.20
2023-05-05T12:28:22.280Z,3.28
2023-05-05T12:31:38.623Z,3.12
2023-05-05T12:34:54.289Z,3.20
2023-05-05T12:38:07.022Z,3.10
2023-05-05T12:41:20.098Z,3.03
2023-05-05T12:44:38.869Z,3.00
2023-05-05T12:47:51.540Z,3.00
2023-05-05T12:51:20.861Z,2.95
2023-05-05T12:54:33.371Z,3.28
2023-05-05T12:58:07.169Z,3.20
2023-05-05T13:01:19.590Z,3.10
2023-05-05T13:04:32.732Z,2.95
2023-05-05T13:07:52.686Z,3.08
2023-05-05T13:11:05.378Z,2.87
2023-05-05T13:14:17.737Z,2.60
2023-05-05T13:17:31.103Z,3.00
2023-05-05T13:20:44.869Z,2.83
2023-05-05T13:24:08.213Z,2.75
2023-05-05T13:27:24.655Z,2.70
2023-05-05T13:30:37.297Z,2.60
2023-05-05T13:33:49.665Z,3.17
2023-05-05T13:37:02.285Z,2.87
2023-05-05T13:40:14.600Z,2.97
2023-05-05T13:43:27.216Z,2.80
2023-05-05T13:46:40.210Z,2.80
2023-05-05T13:49:52.953Z,2.55
2023-05-05T13:53:05.316Z,3.20
2023-05-05T13:56:19.161Z,2.87
2023-05-05T13:59:31.587Z,2.80
2023-05-05T14:02:44.301Z,3.40
2023-05-05T14:05:57.030Z,3.03
2023-05-05T14:09:09.369Z,2.90
2023-05-05T14:12:23.730Z,2.83
2023-05-05T14:15:36.854Z,3.17
2023-05-05T14:18:51.045Z,2.50
2023-05-05T14:22:03.471Z,2.95
2023-05-05T14:25:16.228Z,2.80
2023-05-05T14:28:28.621Z,2.72
2023-05-05T14:31:41.294Z,2.67
2023-05-05T14:34:55.371Z,2.72
2023-05-05T14:38:08.037Z,2.72
2023-05-05T14:41:20.519Z,2.90
2023-05-05T14:44:33.129Z,2.90
2023-05-05T14:47:45.486Z,3.25
2023-05-05T14:50:58.144Z,3.00
2023-05-05T14:54:24.164Z,2.95
2023-05-05T14:57:40.468Z,3.47
2023-05-05T15:00:52.921Z,3.10
2023-05-05T15:04:05.901Z,3.00
2023-05-05T15:07:18.244Z,2.97
2023-05-05T15:10:30.918Z,3.00
2023-05-05T15:13:43.263Z,2.83
2023-05-05T15:16:55.876Z,3.08
2023-05-05T15:20:08.632Z,2.62
2023-05-05T15:23:21.552Z,3.28
2023-05-05T15:26:33.994Z,3.20
2023-05-05T15:29:46.758Z,3.00
2023-05-05T15:32:59.105Z,2.90
2023-05-05T15:36:12.057Z,3.50
2023-05-05T15:39:24.443Z,3.03
2023-05-05T15:42:37.110Z,2.80
2023-05-05T15:45:49.505Z,3.20
2023-05-05T15:49:02.173Z,3.85
2023-05-05T15:52:14.560Z,2.87
2023-05-05T15:55:27.531Z,3.42
2023-05-05T15:58:43.823Z,2.90
2023-05-05T16:02:06.200Z,2.87
2023-05-05T16:05:26.933Z,2.97
2023-05-05T16:08:42.297Z,2.50
2023-05-05T16:11:55.302Z,2.85
2023-05-05T16:15:08.484Z,3.10
2023-05-05T16:18:21.334Z,2.87
2023-05-05T16:21:33.665Z,2.72
2023-05-05T16:24:46.975Z,2.87
2023-05-05T16:28:00.275Z,2.85
2023-05-05T16:31:13.560Z,2.97
2023-05-05T16:34:26.072Z,2.90
2023-05-05T16:37:38.700Z,2.80
2023-05-05T16:40:51.032Z,4.80
2023-05-05T16:44:03.748Z,3.15
2023-05-05T16:47:16.860Z,3.17
2023-05-05T16:50:29.561Z,3.30
2023-05-05T16:53:41.988Z,3.05
2023-05-05T16:56:55.025Z,2.90
2023-05-05T17:00:07.888Z,3.08
2023-05-05T17:03:20.630Z,3.03
2023-05-05T17:06:33.127Z,3.03
2023-05-05T17:09:45.812Z,4.45
2023-05-05T17:12:58.204Z,4.00
2023-05-05T17:16:10.923Z,3.45
2023-05-05T17:19:23.308Z,3.62
2023-05-05T17:22:36.342Z,3.47
2023-05-05T17:25:48.728Z,3.75
2023-05-05T17:29:01.446Z,3.65
2023-05-05T17:32:13.793Z,3.45
2023-05-05T17:35:26.792Z,3.30
2023-05-05T17:38:39.171Z,3.35
2023-05-05T17:41:51.761Z,3.70
2023-05-05T17:45:04.476Z,4.37
2023-05-05T17:48:17.104Z,4.18
2023-05-05T17:51:29.485Z,4.25
2023-05-05T17:54:46.139Z,4.00
2023-05-05T17:57:59.112Z,3.65
2023-05-05T18:01:20.556Z,4.00
2023-05-05T18:04:33.157Z,4.10
2023-05-05T18:07:45.659Z,4.28
2023-05-05T18:10:58.334Z,4.20
2023-05-05T18:14:13.588Z,3.87
2023-05-05T18:17:26.282Z,4.70
2023-05-05T18:20:38.635Z,17.08
2023-05-05T18:23:51.329Z,14.40
2023-05-05T18:27:05.389Z,15.55
2023-05-05T18:30:18.036Z,11.55
2023-05-05T18:33:30.459Z,11.20
2023-05-05T18:36:43.187Z,14.73
2023-05-05T18:39:55.717Z,10.52
2023-05-05T18:43:08.345Z,9.00
2023-05-05T18:46:20.832Z,5.60
2023-05-05T18:49:33.693Z,4.45
2023-05-05T18:52:46.000Z,4.37
2023-05-05T18:55:59.128Z,3.87
2023-05-05T18:59:11.813Z,3.85
2023-05-05T19:02:24.456Z,3.50
2023-05-05T19:05:36.858Z,3.55
2023-05-05T19:08:49.565Z,3.67
2023-05-05T19:12:02.975Z,3.65
2023-05-05T19:15:15.719Z,4.35
2023-05-05T19:18:28.025Z,4.03
2023-05-05T19:21:40.766Z,4.15
2023-05-05T19:24:53.136Z,4.10
2023-05-05T19:28:06.063Z,4.25
2023-05-05T19:31:18.463Z,4.87
2023-05-05T19:34:31.599Z,7.00
2023-05-05T19:37:44.008Z,6.85
2023-05-05T19:40:56.630Z,6.78
2023-05-05T19:44:09.032Z,6.18
2023-05-05T19:47:22.483Z,6.28
2023-05-05T19:50:34.898Z,7.12
2023-05-05T19:53:47.554Z,7.62
2023-05-05T19:57:00.799Z,7.22
2023-05-05T20:00:13.831Z,6.90
2023-05-05T20:03:26.586Z,6.75
2023-05-05T20:06:38.950Z,7.07
2023-05-05T20:09:51.583Z,8.05
2023-05-05T20:13:04.023Z,7.22
2023-05-05T20:16:16.924Z,7.65
2023-05-05T20:19:29.276Z,7.45
2023-05-05T20:22:41.908Z,7.43
2023-05-05T20:25:54.589Z,8.13
2023-05-05T20:29:07.310Z,8.60
2023-05-05T20:32:20.632Z,8.95
2023-05-05T20:35:33.291Z,12.82
2023-05-05T20:38:45.660Z,12.27
2023-05-05T20:41:58.255Z,13.18
2023-05-05T20:45:11.306Z,12.05
2023-05-05T20:48:23.974Z,11.00
2023-05-05T20:51:36.373Z,10.75
2023-05-05T20:54:49.014Z,8.70
2023-05-05T20:58:01.516Z,8.88
2023-05-05T21:01:14.220Z,8.48
2023-05-05T21:04:26.669Z,8.50
2023-05-05T21:07:39.311Z,8.27
2023-05-05T21:10:51.685Z,7.70
2023-05-05T21:14:04.942Z,8.60
2023-05-05T21:17:17.294Z,9.15
2023-05-05T21:20:29.911Z,10.00
2023-05-05T21:23:42.284Z,9.75
2023-05-05T21:26:56.378Z,8.68
2023-05-05T21:30:11.015Z,8.60
2023-05-05T21:33:24.028Z,8.50
2023-05-05T21:36:37.173Z,9.05
2023-05-05T21:39:49.840Z,8.90
2023-05-05T21:43:02.197Z,8.43
2023-05-05T21:46:17.205Z,8.18
2023-05-05T21:49:29.657Z,8.00
2023-05-05T21:52:42.298Z,9.55
2023-05-05T21:55:55.243Z,8.30
2023-05-05T21:59:07.841Z,8.50
2023-05-05T22:02:20.245Z,8.35
2023-05-05T22:05:32.969Z,8.38
2023-05-05T22:08:45.317Z,8.77
2023-05-05T22:11:58.017Z,9.40
2023-05-05T22:15:10.975Z,9.23
2023-05-05T22:18:23.902Z,8.82
2023-05-05T22:21:36.271Z,8.38
2023-05-05T22:24:49.035Z,9.07
2023-05-05T22:28:01.455Z,8.68
2023-05-05T22:31:14.150Z,8.55
2023-05-05T22:34:26.546Z,8.10
2023-05-05T22:37:39.173Z,8.60
2023-05-05T22:40:51.483Z,7.90
2023-05-05T22:44:04.160Z,8.20
2023-05-05T22:47:16.627Z,8.85
2023-05-05T22:50:29.312Z,8.18
2023-05-05T22:53:41.735Z,8.30
2023-05-05T22:56:54.411Z,8.25
2023-05-05T23:00:08.559Z,8.77
2023-05-05T23:03:21.170Z,8.68
2023-05-05T23:06:33.548Z,8.45
2023-05-05T23:09:46.865Z,9.40
2023-05-05T23:12:59.260Z,9.40
2023-05-05T23:16:11.913Z,9.68
2023-05-05T23:19:24.368Z,9.30
2023-05-05T23:22:37.259Z,9.10
2023-05-05T23:25:49.680Z,9.35
2023-05-05T23:29:02.369Z,8.70
2023-05-05T23:32:14.751Z,8.50
2023-05-05T23:35:28.040Z,8.02
2023-05-05T23:38:40.432Z,8.00
2023-05-05T23:41:53.044Z,7.80
2023-05-05T23:45:05.808Z,7.55
2023-05-05T23:48:18.480Z,6.95
2023-05-05T23:51:31.077Z,7.00
2023-05-05T23:54:44.722Z,7.22
2023-05-05T23:57:57.086Z,6.15
